map of EBD home
EBD - Airport
Location
City:  El Obeid, North Kordofan, Sudan
ICAO:HSOB
IATA:EBD

Details
Type:Airport (Aerodrome, Airfield)
Use:Public/Civil
Latitude:1309'12"N (13.153219)
Longitude:3013'58"E (30.232675)
Datum:WGS 1984
Elevation:1927 ft (587 m)
Variation:3.26E (WMM2015 magnetic declination)
0.08 annual change
Runways:1
Longest:9843 × 148 ft (3000 × 45 m), paved

Time
Time Zone:UTC+2
Local Time:

Weather
METAR:HSOB 161700Z 02005KT CAVOK 30/08 Q1010
TAF:HSOB 161100Z 1612/1718 35008G18KT CAVOK

Related Locations
Nearby:
Farthest:MVT: 12297 mi / 19789 km
Mataiva, PF

Find:

   beyond  
but within

Other Information
Maps:
NOTAMs:
Links:
Sources:

  
  • flag of Sudan
  

Sectional Chart

Flight Planning
at skyvector.com

Satellite Image

Google Maps Satellite view

 

Copyright © 2004-2018 Karl L. Swartz. All rights reserved.
The Great Circle Mapper name and logo are trademarks of the Great Circle Mapper.
All other trademarks mentioned herein belong to their respective owners.
Please see credits for attibutions and further copyright information.

  Follow gcmap on Facebook Follow gcmap on Twitter Follow gcmap on Google+ GCmap on LinkedIn

hCard Microformat

Geo Microformat